Time;durP1;ratioP1;P1;durP2;ratioP2;P2;SDS_P1;SDS_P2;PMS_P1;PMS_P2;Temp;Humidity;BMP_temperature;BMP_pressure;BME280_temperature;BME280_humidity;BME280_pressure;Samples;Min_cycle;Max_cycle;Signal;HPM_P1;HPM_P2
2022/12/03 00:01:15;;;;;;;;;;;2.90;99.90;;;;;;5019988;28;19936;-81
2022/12/03 00:03:41;;;;;;;;;;;2.90;99.90;;;;;;5015051;28;20281;-81
2022/12/03 00:06:07;;;;;;;;;;;2.90;99.90;;;;;;5036366;28;19929;-81
2022/12/03 00:08:32;;;;;;;;;;;3.00;99.90;;;;;;5022306;28;19921;-82
2022/12/03 00:10:58;;;;;;;;;;;3.00;99.90;;;;;;5000777;28;20447;-85
2022/12/03 00:13:23;;;;;;;;;;;3.00;99.90;;;;;;5015897;28;19932;-83
2022/12/03 00:15:55;;;;;;;;;;;2.90;99.90;;;;;;5037252;28;19932;-81
2022/12/03 00:18:20;;;;;;;;;;;3.00;99.90;;;;;;5024546;28;19926;-81
2022/12/03 00:20:55;;;;;;;;;;;3.00;99.90;;;;;;5016040;28;20499;-82
2022/12/03 00:23:20;;;;;;;;;;;2.90;99.90;;;;;;5002618;28;20044;-81
2022/12/03 00:25:46;;;;;;;;;;;3.00;99.90;;;;;;5035168;28;20403;-81
2022/12/03 00:28:11;;;;;;;;;;;2.90;99.90;;;;;;4992214;28;19937;-82
2022/12/03 00:30:37;;;;;;;;;;;3.00;99.90;;;;;;5015433;28;19925;-84
2022/12/03 00:33:03;;;;;;;;;;;3.00;99.90;;;;;;4984987;28;19922;-81
2022/12/03 00:35:28;;;;;;;;;;;3.00;99.90;;;;;;5023083;28;20335;-81
2022/12/03 00:37:54;;;;;;;;;;;3.00;99.90;;;;;;5016097;28;19932;-81
2022/12/03 00:40:20;;;;;;;;;;;3.10;99.90;;;;;;5010499;28;20006;-81
2022/12/03 00:42:45;;;;;;;;;;;3.00;99.90;;;;;;5021173;28;19983;-81
2022/12/03 00:45:11;;;;;;;;;;;3.00;99.90;;;;;;5020085;28;20300;-82
2022/12/03 00:47:38;;;;;;;;;;;3.10;99.90;;;;;;5027275;28;19921;-80
2022/12/03 00:50:10;;;;;;;;;;;3.00;99.90;;;;;;5020867;28;19932;-81
2022/12/03 00:52:35;;;;;;;;;;;3.00;99.90;;;;;;5021370;28;20375;-81
2022/12/03 00:55:01;;;;;;;;;;;3.00;99.90;;;;;;5026580;28;19937;-81
2022/12/03 00:57:27;;;;;;;;;;;3.00;99.90;;;;;;5017690;28;19921;-81
2022/12/03 00:59:58;;;;;;;;;;;3.00;99.90;;;;;;5019189;28;19921;-81
2022/12/03 01:02:24;;;;;;;;;;;3.00;99.90;;;;;;5008664;28;19928;-82
2022/12/03 01:04:50;;;;;;;;;;;3.00;99.90;;;;;;4990505;28;20040;-86
2022/12/03 01:07:16;;;;;;;;;;;3.00;99.90;;;;;;5010378;28;20435;-81
2022/12/03 01:09:41;;;;;;;;;;;3.00;99.90;;;;;;5023144;28;20008;-81
2022/12/03 01:12:07;;;;;;;;;;;3.00;99.90;;;;;;5031683;28;19921;-81
2022/12/03 01:14:33;;;;;;;;;;;3.00;99.90;;;;;;5009052;28;19921;-81
2022/12/03 01:16:58;;;;;;;;;;;3.00;99.90;;;;;;5011395;28;19945;-81
2022/12/03 01:19:26;;;;;;;;;;;3.00;99.90;;;;;;5012757;28;19929;-84
2022/12/03 01:21:58;;;;;;;;;;;3.00;99.90;;;;;;5026699;28;19939;-81
2022/12/03 01:24:23;;;;;;;;;;;3.00;99.90;;;;;;5034458;28;19960;-81
2022/12/03 01:26:49;;;;;;;;;;;3.10;99.90;;;;;;5034607;28;20040;-82
2022/12/03 01:29:14;;;;;;;;;;;3.00;99.90;;;;;;5028581;28;19944;-82
2022/12/03 01:34:37;;;;;;;;;;;3.10;99.90;;;;;;5019380;28;20292;-81
2022/12/03 01:37:03;;;;;;;;;;;3.10;99.90;;;;;;5017948;28;19922;-82
2022/12/03 01:39:28;;;;;;;;;;;3.10;99.90;;;;;;5010937;28;19948;-80
2022/12/03 01:41:54;;;;;;;;;;;3.10;99.90;;;;;;4998694;28;19935;-82
2022/12/03 01:44:21;;;;;;;;;;;3.10;99.90;;;;;;5018409;28;19925;-82
2022/12/03 01:46:47;;;;;;;;;;;3.10;99.90;;;;;;5016821;28;20257;-81
2022/12/03 01:49:15;;;;;;;;;;;3.10;99.90;;;;;;5023491;28;19944;-84
2022/12/03 01:51:41;;;;;;;;;;;3.10;99.90;;;;;;5022024;28;19925;-86
2022/12/03 01:54:09;;;;;;;;;;;3.20;99.90;;;;;;5019532;28;20422;-81
2022/12/03 01:56:35;;;;;;;;;;;3.20;99.90;;;;;;5016879;28;19925;-81
2022/12/03 01:59:08;;;;;;;;;;;3.20;99.90;;;;;;5019769;28;19928;-80
2022/12/03 02:01:33;;;;;;;;;;;3.20;99.90;;;;;;5015689;28;20011;-80
2022/12/03 02:03:59;;;;;;;;;;;3.20;99.90;;;;;;5012037;28;20063;-82
2022/12/03 02:06:25;;;;;;;;;;;3.30;99.90;;;;;;5016933;28;19933;-81
2022/12/03 02:08:57;;;;;;;;;;;3.30;99.90;;;;;;5004215;28;19966;-81
2022/12/03 02:11:32;;;;;;;;;;;3.20;99.90;;;;;;5037876;28;19947;-83
2022/12/03 02:14:01;;;;;;;;;;;3.30;99.90;;;;;;5026933;28;19991;-81
2022/12/03 02:16:27;;;;;;;;;;;3.30;99.90;;;;;;4992498;28;19984;-81
2022/12/03 02:18:53;;;;;;;;;;;3.30;99.90;;;;;;5001473;28;20395;-81
2022/12/03 02:21:21;;;;;;;;;;;3.30;99.90;;;;;;4982888;28;20012;-81
2022/12/03 02:23:57;;;;;;;;;;;3.30;99.90;;;;;;5036260;28;20356;-81
2022/12/03 02:26:23;;;;;;;;;;;3.30;99.90;;;;;;5017384;28;19921;-83
2022/12/03 02:28:49;;;;;;;;;;;3.30;99.90;;;;;;5018273;28;19925;-81
2022/12/03 02:31:15;;;;;;;;;;;3.30;99.90;;;;;;5018821;28;19928;-81
2022/12/03 02:33:40;;;;;;;;;;;3.30;99.90;;;;;;5007197;28;19925;-81
2022/12/03 02:36:07;;;;;;;;;;;3.30;99.90;;;;;;5015708;28;19967;-81
2022/12/03 02:38:34;;;;;;;;;;;3.30;99.90;;;;;;5013351;28;20012;-81
2022/12/03 02:41:06;;;;;;;;;;;3.30;99.90;;;;;;5016928;28;19960;-81
2022/12/03 02:43:32;;;;;;;;;;;3.30;99.90;;;;;;5033325;28;19928;-81
2022/12/03 02:46:00;;;;;;;;;;;3.30;99.90;;;;;;5035780;28;19921;-81
2022/12/03 02:48:31;;;;;;;;;;;3.40;99.90;;;;;;5013986;28;20027;-83
2022/12/03 02:50:58;;;;;;;;;;;3.30;99.90;;;;;;5034119;28;19928;-81
2022/12/03 02:53:32;;;;;;;;;;;3.30;99.90;;;;;;5015136;28;20369;-82
2022/12/03 02:55:58;;;;;;;;;;;3.30;99.90;;;;;;5019664;28;19983;-86
2022/12/03 02:58:24;;;;;;;;;;;3.20;99.90;;;;;;5033492;28;20059;-80
2022/12/03 03:00:52;;;;;;;;;;;3.30;99.90;;;;;;5004796;28;19975;-81
2022/12/03 03:03:18;;;;;;;;;;;3.30;99.90;;;;;;5018063;28;19965;-82
2022/12/03 03:05:44;;;;;;;;;;;3.30;99.90;;;;;;5035853;28;19933;-82
2022/12/03 03:08:10;;;;;;;;;;;3.30;99.90;;;;;;5021264;28;19944;-81
2022/12/03 03:10:37;;;;;;;;;;;3.30;99.90;;;;;;5018731;28;20012;-81
2022/12/03 03:13:05;;;;;;;;;;;3.30;99.90;;;;;;5012630;28;19921;-81
2022/12/03 03:15:30;;;;;;;;;;;3.30;99.90;;;;;;5024627;28;19922;-82
2022/12/03 03:17:56;;;;;;;;;;;3.30;99.90;;;;;;5036255;28;20426;-82
2022/12/03 03:20:22;;;;;;;;;;;3.30;99.90;;;;;;5019309;28;19928;-81
2022/12/03 03:22:47;;;;;;;;;;;3.30;99.90;;;;;;5031044;28;20064;-81
2022/12/03 03:25:15;;;;;;;;;;;3.20;99.90;;;;;;5024186;28;19951;-82
2022/12/03 03:27:44;;;;;;;;;;;3.20;99.90;;;;;;5011275;28;19921;-82
2022/12/03 03:30:10;;;;;;;;;;;3.30;99.90;;;;;;5015165;28;19929;-82
2022/12/03 03:32:37;;;;;;;;;;;3.20;99.90;;;;;;5010907;28;19929;-87
2022/12/03 03:35:03;;;;;;;;;;;3.30;99.90;;;;;;5006588;28;20288;-81
2022/12/03 03:37:28;;;;;;;;;;;3.30;99.90;;;;;;5022923;28;20318;-81
2022/12/03 03:39:54;;;;;;;;;;;3.30;99.90;;;;;;5033807;28;19937;-81
2022/12/03 03:42:20;;;;;;;;;;;3.20;99.90;;;;;;5007814;28;20324;-82
2022/12/03 03:44:46;;;;;;;;;;;3.30;99.90;;;;;;5013643;28;20016;-82
2022/12/03 03:47:12;;;;;;;;;;;3.20;99.90;;;;;;5016933;28;20399;-81
2022/12/03 03:49:38;;;;;;;;;;;3.20;99.90;;;;;;5019852;28;19925;-82
2022/12/03 03:52:04;;;;;;;;;;;3.20;99.90;;;;;;5029713;28;20404;-82
2022/12/03 03:54:30;;;;;;;;;;;3.20;99.90;;;;;;5016765;28;19965;-81
2022/12/03 03:56:56;;;;;;;;;;;3.20;99.90;;;;;;5012609;28;19925;-85
2022/12/03 03:59:21;;;;;;;;;;;3.10;99.90;;;;;;5020922;28;19976;-82
2022/12/03 04:01:47;;;;;;;;;;;3.20;99.90;;;;;;5020640;28;20050;-81
2022/12/03 04:04:18;;;;;;;;;;;3.10;99.90;;;;;;5022811;28;19929;-84
2022/12/03 04:06:44;;;;;;;;;;;3.10;99.90;;;;;;5027173;28;19976;-82
2022/12/03 04:09:10;;;;;;;;;;;3.10;99.90;;;;;;5013181;28;20009;-80
2022/12/03 04:14:19;;;;;;;;;;;3.10;99.90;;;;;;5031990;28;20398;-82
2022/12/03 04:16:45;;;;;;;;;;;3.00;99.90;;;;;;5041050;28;19921;-81
2022/12/03 04:19:12;;;;;;;;;;;3.00;99.90;;;;;;5036421;28;20284;-81
2022/12/03 04:24:33;;;;;;;;;;;2.90;99.90;;;;;;5019448;28;19928;-80
2022/12/03 04:29:43;;;;;;;;;;;2.90;99.90;;;;;;5020853;28;19925;-80
2022/12/03 04:37:47;;;;;;;;;;;2.70;99.90;;;;;;5030582;28;19968;-80
2022/12/03 04:43:04;;;;;;;;;;;2.80;99.90;;;;;;5025182;28;19940;-79
2022/12/03 04:45:29;;;;;;;;;;;2.80;99.90;;;;;;5047038;28;19921;-80
2022/12/03 04:47:55;;;;;;;;;;;2.80;99.90;;;;;;5028334;28;20023;-80
2022/12/03 04:50:21;;;;;;;;;;;2.70;99.90;;;;;;5045777;28;19925;-80
2022/12/03 04:52:49;;;;;;;;;;;2.80;99.90;;;;;;5012388;28;19927;-80
2022/12/03 04:55:14;;;;;;;;;;;2.80;99.90;;;;;;5038749;28;19925;-81
2022/12/03 04:57:41;;;;;;;;;;;2.80;99.90;;;;;;5031102;28;19991;-80
2022/12/03 05:00:10;;;;;;;;;;;2.70;99.90;;;;;;5002114;28;19921;-80
2022/12/03 05:02:36;;;;;;;;;;;2.70;99.90;;;;;;5022979;28;20376;-81
2022/12/03 05:05:02;;;;;;;;;;;2.80;99.90;;;;;;5025589;28;20410;-80
2022/12/03 05:07:27;;;;;;;;;;;2.70;99.90;;;;;;5028073;28;20025;-80
2022/12/03 05:09:53;;;;;;;;;;;2.80;99.90;;;;;;5030210;28;20372;-80
2022/12/03 05:12:18;;;;;;;;;;;2.70;99.90;;;;;;5029886;28;20368;-80
2022/12/03 05:14:44;;;;;;;;;;;2.70;99.90;;;;;;5024441;28;19971;-80
2022/12/03 05:17:10;;;;;;;;;;;2.70;99.90;;;;;;5016508;28;19944;-80
2022/12/03 05:22:21;;;;;;;;;;;2.70;99.90;;;;;;5017184;28;19927;-82
2022/12/03 05:24:47;;;;;;;;;;;2.70;99.90;;;;;;5025663;28;19929;-81
2022/12/03 05:27:33;;;;;;;;;;;2.70;99.90;;;;;;5000119;28;19928;-81
2022/12/03 05:29:59;;;;;;;;;;;2.70;99.90;;;;;;5020101;28;19925;-81
2022/12/03 05:32:25;;;;;;;;;;;2.80;99.90;;;;;;5036673;28;19929;-81
2022/12/03 05:34:50;;;;;;;;;;;2.70;99.90;;;;;;5017178;28;19948;-81
2022/12/03 05:37:16;;;;;;;;;;;2.70;99.90;;;;;;5017419;28;19965;-81
2022/12/03 05:39:42;;;;;;;;;;;2.70;99.90;;;;;;5024898;28;19932;-80
2022/12/03 05:44:52;;;;;;;;;;;2.70;99.90;;;;;;5018382;28;19929;-81
2022/12/03 05:47:19;;;;;;;;;;;2.70;99.90;;;;;;5009452;28;19976;-80
2022/12/03 05:49:48;;;;;;;;;;;2.70;99.90;;;;;;5015432;28;19932;-80
2022/12/03 05:52:13;;;;;;;;;;;2.70;99.90;;;;;;5009974;28;20011;-81
2022/12/03 05:54:39;;;;;;;;;;;2.70;99.90;;;;;;5014904;28;19921;-80
2022/12/03 05:57:04;;;;;;;;;;;2.70;99.90;;;;;;5020504;28;19956;-80
2022/12/03 05:59:30;;;;;;;;;;;2.70;99.90;;;;;;5039271;28;19948;-83
2022/12/03 06:01:56;;;;;;;;;;;2.70;99.90;;;;;;5033494;28;19927;-81
2022/12/03 06:04:21;;;;;;;;;;;2.70;99.90;;;;;;5023462;28;19922;-80
2022/12/03 06:06:47;;;;;;;;;;;2.70;99.90;;;;;;5031717;28;19921;-81
2022/12/03 06:09:12;;;;;;;;;;;2.60;99.90;;;;;;5025565;28;19960;-80
2022/12/03 06:11:39;;;;;;;;;;;2.70;99.90;;;;;;5018857;28;19921;-81
2022/12/03 06:14:05;;;;;;;;;;;2.60;99.90;;;;;;5012967;28;19965;-81
2022/12/03 06:16:30;;;;;;;;;;;2.70;99.90;;;;;;5025040;28;19972;-80
2022/12/03 06:18:56;;;;;;;;;;;2.60;99.90;;;;;;5034697;28;19928;-80
2022/12/03 06:21:22;;;;;;;;;;;2.60;99.90;;;;;;5020090;28;19925;-80
2022/12/03 06:23:47;;;;;;;;;;;2.60;99.90;;;;;;5019454;28;19921;-80
2022/12/03 06:26:13;;;;;;;;;;;2.60;99.90;;;;;;5004809;28;20766;-83
2022/12/03 06:28:39;;;;;;;;;;;2.60;99.90;;;;;;5016055;28;19926;-81
2022/12/03 06:31:12;;;;;;;;;;;2.60;99.90;;;;;;5020087;28;19929;-80
2022/12/03 06:33:38;;;;;;;;;;;2.60;99.90;;;;;;5017223;28;19936;-81
2022/12/03 06:36:06;;;;;;;;;;;2.60;99.90;;;;;;5017634;28;19986;-80
2022/12/03 06:38:32;;;;;;;;;;;2.60;99.90;;;;;;5014968;28;19925;-81
2022/12/03 06:40:57;;;;;;;;;;;2.60;99.90;;;;;;5006451;28;19940;-79
2022/12/03 06:43:23;;;;;;;;;;;2.60;99.90;;;;;;5018002;28;20368;-81
2022/12/03 06:45:48;;;;;;;;;;;2.60;99.90;;;;;;4993058;28;19921;-80
2022/12/03 06:48:14;;;;;;;;;;;2.60;99.90;;;;;;5023532;28;20050;-84
2022/12/03 06:50:40;;;;;;;;;;;2.60;99.90;;;;;;5025497;28;19928;-81
2022/12/03 06:53:05;;;;;;;;;;;2.60;99.90;;;;;;5029050;28;19928;-80
2022/12/03 06:55:31;;;;;;;;;;;2.60;99.90;;;;;;4997254;28;19971;-81
2022/12/03 06:57:56;;;;;;;;;;;2.60;99.90;;;;;;5007032;28;19921;-84
2022/12/03 07:00:22;;;;;;;;;;;2.60;99.90;;;;;;5017734;28;19922;-81
2022/12/03 07:02:47;;;;;;;;;;;2.60;99.90;;;;;;5032017;28;19921;-81
2022/12/03 07:05:13;;;;;;;;;;;2.60;99.90;;;;;;5027374;28;19990;-81
2022/12/03 07:07:39;;;;;;;;;;;2.60;99.90;;;;;;5040330;28;19921;-80
2022/12/03 07:10:05;;;;;;;;;;;2.60;99.90;;;;;;5005936;28;19932;-86
2022/12/03 07:12:33;;;;;;;;;;;2.50;99.90;;;;;;5008215;28;19952;-84
2022/12/03 07:14:59;;;;;;;;;;;2.60;99.90;;;;;;5015873;28;20378;-84
2022/12/03 07:17:25;;;;;;;;;;;2.50;99.90;;;;;;5017725;28;20249;-81
2022/12/03 07:19:50;;;;;;;;;;;2.50;99.90;;;;;;5024838;28;19975;-81
2022/12/03 07:22:16;;;;;;;;;;;2.40;99.90;;;;;;5019503;28;20028;-81
2022/12/03 07:24:41;;;;;;;;;;;2.40;99.90;;;;;;5038166;28;19921;-80
2022/12/03 07:27:07;;;;;;;;;;;2.50;99.90;;;;;;5016752;28;19944;-87
2022/12/03 07:29:32;;;;;;;;;;;2.40;99.90;;;;;;5024392;28;20047;-81
2022/12/03 07:31:58;;;;;;;;;;;2.40;99.90;;;;;;5038619;28;19979;-80
2022/12/03 07:34:24;;;;;;;;;;;2.50;99.90;;;;;;5023247;28;19943;-81
2022/12/03 07:36:49;;;;;;;;;;;2.30;99.90;;;;;;5017776;28;19952;-81
2022/12/03 07:39:15;;;;;;;;;;;2.30;99.90;;;;;;5017403;28;20317;-81
2022/12/03 07:41:40;;;;;;;;;;;2.40;99.90;;;;;;5028967;28;20390;-85
2022/12/03 07:44:06;;;;;;;;;;;2.30;99.90;;;;;;5022766;28;20004;-81
2022/12/03 07:46:31;;;;;;;;;;;2.30;99.90;;;;;;5023296;28;19929;-82
2022/12/03 07:48:57;;;;;;;;;;;2.30;99.90;;;;;;5018815;28;20324;-81
2022/12/03 07:51:22;;;;;;;;;;;2.30;99.90;;;;;;5038840;28;19921;-81
2022/12/03 07:53:48;;;;;;;;;;;2.30;99.90;;;;;;5020496;28;20025;-82
2022/12/03 07:56:14;;;;;;;;;;;2.30;99.90;;;;;;5022985;28;19952;-82
2022/12/03 07:58:39;;;;;;;;;;;2.20;99.90;;;;;;5013988;28;19921;-81
2022/12/03 08:01:05;;;;;;;;;;;2.30;99.90;;;;;;5018994;28;20008;-81
2022/12/03 08:03:30;;;;;;;;;;;2.30;99.90;;;;;;5016106;28;20288;-80
2022/12/03 08:05:56;;;;;;;;;;;2.20;99.90;;;;;;5018357;28;19925;-80
2022/12/03 08:08:21;;;;;;;;;;;2.30;99.90;;;;;;5012433;28;19928;-81
2022/12/03 08:10:47;;;;;;;;;;;2.30;99.90;;;;;;5000981;28;19926;-81
2022/12/03 08:13:13;;;;;;;;;;;2.20;99.90;;;;;;5036047;28;19990;-80
2022/12/03 08:15:39;;;;;;;;;;;2.20;99.90;;;;;;5019868;28;19947;-80
2022/12/03 08:18:15;;;;;;;;;;;2.10;99.90;;;;;;5047106;28;19929;-80
2022/12/03 08:20:41;;;;;;;;;;;2.10;99.90;;;;;;5032216;28;19921;-79
2022/12/03 08:23:21;;;;;;;;;;;2.10;99.90;;;;;;5033447;28;20039;-80
2022/12/03 08:25:47;;;;;;;;;;;2.10;99.90;;;;;;5027497;28;19925;-80
2022/12/03 08:28:24;;;;;;;;;;;2.10;99.90;;;;;;5022846;28;19928;-78
2022/12/03 08:30:59;;;;;;;;;;;2.00;99.90;;;;;;5025232;28;20331;-80
2022/12/03 08:33:32;;;;;;;;;;;2.10;99.90;;;;;;5012035;28;19922;-82
2022/12/03 08:35:59;;;;;;;;;;;2.00;99.90;;;;;;5011640;28;19929;-79
2022/12/03 08:38:25;;;;;;;;;;;2.00;99.90;;;;;;5015150;28;19932;-82
2022/12/03 08:40:51;;;;;;;;;;;2.00;99.90;;;;;;5020559;28;19921;-79
2022/12/03 08:43:20;;;;;;;;;;;2.10;99.90;;;;;;5018389;28;19928;-79
2022/12/03 08:45:46;;;;;;;;;;;2.00;99.90;;;;;;5034275;28;20758;-80
2022/12/03 08:48:18;;;;;;;;;;;2.10;99.90;;;;;;5042809;28;19952;-79
2022/12/03 08:50:44;;;;;;;;;;;2.10;99.90;;;;;;5037193;28;19929;-80
2022/12/03 08:53:13;;;;;;;;;;;2.20;99.90;;;;;;5014268;28;20331;-83
2022/12/03 08:55:51;;;;;;;;;;;2.10;99.90;;;;;;5015127;28;20012;-81
2022/12/03 08:58:32;;;;;;;;;;;2.20;99.90;;;;;;5026385;28;19960;-79
2022/12/03 09:01:07;;;;;;;;;;;2.10;99.90;;;;;;5021016;28;20395;-79
2022/12/03 09:03:33;;;;;;;;;;;2.10;99.90;;;;;;5018900;28;20020;-80
2022/12/03 09:05:58;;;;;;;;;;;2.20;99.90;;;;;;5025613;28;19987;-79
2022/12/03 09:08:24;;;;;;;;;;;2.20;99.90;;;;;;5027775;28;19928;-80
2022/12/03 09:10:50;;;;;;;;;;;2.10;99.90;;;;;;5019465;28;20366;-79
2022/12/03 09:13:15;;;;;;;;;;;2.10;99.90;;;;;;5024962;28;19922;-78
2022/12/03 09:15:41;;;;;;;;;;;2.20;99.90;;;;;;5022372;28;19932;-80
2022/12/03 09:18:06;;;;;;;;;;;2.10;99.90;;;;;;5016849;28;20012;-78
2022/12/03 09:20:32;;;;;;;;;;;2.10;99.90;;;;;;5014914;28;19921;-81
2022/12/03 09:22:57;;;;;;;;;;;2.10;99.90;;;;;;5031316;28;20008;-79
2022/12/03 09:25:23;;;;;;;;;;;2.00;99.90;;;;;;5015622;28;20013;-78
2022/12/03 09:27:48;;;;;;;;;;;2.00;99.90;;;;;;5016110;28;20328;-78
2022/12/03 09:30:14;;;;;;;;;;;2.10;99.90;;;;;;5014319;28;19925;-80
2022/12/03 09:32:40;;;;;;;;;;;2.10;99.90;;;;;;5015426;28;20004;-78
2022/12/03 09:35:06;;;;;;;;;;;2.10;99.90;;;;;;5014071;28;19921;-81
2022/12/03 09:37:31;;;;;;;;;;;2.10;99.90;;;;;;5029527;28;20003;-84
2022/12/03 09:39:57;;;;;;;;;;;2.10;99.90;;;;;;5013075;28;19928;-79
2022/12/03 09:42:23;;;;;;;;;;;2.20;99.90;;;;;;5005383;28;19928;-79
2022/12/03 09:44:49;;;;;;;;;;;2.10;99.90;;;;;;5035193;28;19921;-79
2022/12/03 09:47:14;;;;;;;;;;;2.10;99.90;;;;;;5043083;28;20020;-79
2022/12/03 09:49:40;;;;;;;;;;;2.20;99.90;;;;;;5013528;28;20415;-81
2022/12/03 09:52:06;;;;;;;;;;;2.10;99.90;;;;;;5016267;28;20024;-79
2022/12/03 09:54:33;;;;;;;;;;;2.10;99.90;;;;;;5015184;28;19929;-79
2022/12/03 09:56:59;;;;;;;;;;;2.00;99.90;;;;;;5014367;28;19921;-81
2022/12/03 09:59:28;;;;;;;;;;;2.00;99.90;;;;;;5021662;28;20338;-79
2022/12/03 10:01:54;;;;;;;;;;;2.10;99.90;;;;;;5013790;28;19990;-79
2022/12/03 10:04:20;;;;;;;;;;;2.20;99.90;;;;;;5024155;28;19922;-80
2022/12/03 10:06:46;;;;;;;;;;;2.20;99.90;;;;;;5028717;28;19929;-79
2022/12/03 10:09:13;;;;;;;;;;;2.20;99.90;;;;;;5023271;28;20011;-80
2022/12/03 10:11:38;;;;;;;;;;;2.20;99.90;;;;;;5013961;28;20345;-78
2022/12/03 10:14:04;;;;;;;;;;;2.30;99.90;;;;;;5021432;28;20206;-79
2022/12/03 10:16:30;;;;;;;;;;;2.30;99.90;;;;;;5050139;28;20353;-79
2022/12/03 10:18:58;;;;;;;;;;;2.20;99.90;;;;;;5042447;28;19929;-80
2022/12/03 10:21:33;;;;;;;;;;;2.10;99.90;;;;;;5028428;28;19964;-79
2022/12/03 10:24:16;;;;;;;;;;;2.20;99.90;;;;;;5014577;28;20047;-80
2022/12/03 10:26:43;;;;;;;;;;;2.20;99.90;;;;;;5013389;28;19928;-79
2022/12/03 10:29:19;;;;;;;;;;;2.30;99.90;;;;;;5014207;28;19925;-79
2022/12/03 10:31:52;;;;;;;;;;;2.30;99.90;;;;;;5028559;28;20004;-79
2022/12/03 10:34:23;;;;;;;;;;;2.30;99.90;;;;;;5014189;28;19921;-80
2022/12/03 10:37:07;;;;;;;;;;;2.40;99.90;;;;;;5012965;28;20495;-79
2022/12/03 10:39:50;;;;;;;;;;;2.40;99.90;;;;;;5030887;28;19976;-80
2022/12/03 10:42:17;;;;;;;;;;;2.40;99.90;;;;;;5024989;28;19929;-80
2022/12/03 10:44:43;;;;;;;;;;;2.30;99.90;;;;;;5024655;28;20016;-79
2022/12/03 10:47:10;;;;;;;;;;;2.30;99.90;;;;;;5033688;28;20017;-79
2022/12/03 10:49:36;;;;;;;;;;;2.30;99.90;;;;;;5030625;28;19929;-80
2022/12/03 10:52:01;;;;;;;;;;;2.30;99.90;;;;;;5013666;28;20316;-78
2022/12/03 10:54:28;;;;;;;;;;;2.30;99.90;;;;;;4996804;28;19932;-79
2022/12/03 10:56:55;;;;;;;;;;;2.20;99.90;;;;;;5013739;28;19921;-79
2022/12/03 10:59:24;;;;;;;;;;;2.30;99.90;;;;;;5013760;28;19921;-78
2022/12/03 11:01:50;;;;;;;;;;;2.20;99.90;;;;;;5013419;28;19977;-78
2022/12/03 11:04:29;;;;;;;;;;;2.20;99.90;;;;;;5012714;28;19960;-79
2022/12/03 11:06:55;;;;;;;;;;;2.20;99.90;;;;;;4995827;28;19936;-78
2022/12/03 11:09:23;;;;;;;;;;;2.20;99.90;;;;;;5018143;28;19926;-78
2022/12/03 11:11:48;;;;;;;;;;;2.40;99.90;;;;;;5004464;28;19928;-79
2022/12/03 11:14:34;;;;;;;;;;;2.40;99.90;;;;;;5027564;28;19921;-80
2022/12/03 11:17:02;;;;;;;;;;;2.30;99.90;;;;;;5033995;28;19928;-79
2022/12/03 11:19:34;;;;;;;;;;;2.30;99.90;;;;;;5012148;28;20031;-79
2022/12/03 11:22:05;;;;;;;;;;;2.30;99.90;;;;;;5013531;28;19929;-79
2022/12/03 11:24:32;;;;;;;;;;;2.30;99.90;;;;;;5013598;28;20032;-79
2022/12/03 11:26:58;;;;;;;;;;;2.30;99.90;;;;;;5013187;28;19929;-79
2022/12/03 11:29:42;;;;;;;;;;;2.30;99.90;;;;;;4997596;28;19925;-79
2022/12/03 11:32:08;;;;;;;;;;;2.30;99.90;;;;;;5012995;28;20011;-79
2022/12/03 11:34:33;;;;;;;;;;;2.30;99.90;;;;;;5014724;28;20003;-79
2022/12/03 11:37:08;;;;;;;;;;;2.30;99.90;;;;;;5032900;28;20348;-78
2022/12/03 11:39:43;;;;;;;;;;;2.30;99.90;;;;;;5028262;28;20436;-79
2022/12/03 11:42:27;;;;;;;;;;;2.30;99.90;;;;;;5028304;28;19922;-79
2022/12/03 11:45:01;;;;;;;;;;;2.30;99.90;;;;;;5031612;28;19921;-79
2022/12/03 11:47:27;;;;;;;;;;;2.30;99.90;;;;;;5033301;28;19955;-82
2022/12/03 11:49:53;;;;;;;;;;;2.40;99.90;;;;;;5033244;28;20438;-79
2022/12/03 11:52:21;;;;;;;;;;;2.40;99.90;;;;;;5015422;28;20020;-79
2022/12/03 11:54:55;;;;;;;;;;;2.40;99.90;;;;;;5026241;28;20367;-80
2022/12/03 11:57:25;;;;;;;;;;;2.40;99.90;;;;;;5025372;28;19979;-82
2022/12/03 12:00:19;;;;;;;;;;;2.40;99.90;;;;;;5012284;28;19936;-79
2022/12/03 12:02:45;;;;;;;;;;;2.40;99.90;;;;;;5029187;28;19971;-80
2022/12/03 12:05:15;;;;;;;;;;;2.40;99.90;;;;;;5043095;28;20331;-79
2022/12/03 12:07:47;;;;;;;;;;;2.40;99.90;;;;;;5023834;28;20007;-78
2022/12/03 12:10:32;;;;;;;;;;;2.50;99.90;;;;;;5017532;28;20032;-81
2022/12/03 12:12:57;;;;;;;;;;;2.50;99.90;;;;;;5034655;28;20012;-79
2022/12/03 12:15:34;;;;;;;;;;;2.50;99.90;;;;;;5016563;28;20009;-79
2022/12/03 12:18:18;;;;;;;;;;;2.60;99.90;;;;;;5012785;28;19928;-78
2022/12/03 12:20:43;;;;;;;;;;;2.60;99.90;;;;;;5015353;28;19921;-79
2022/12/03 12:23:26;;;;;;;;;;;2.60;99.90;;;;;;5012417;28;20356;-80
2022/12/03 12:25:52;;;;;;;;;;;2.60;99.90;;;;;;5021596;28;19925;-80
2022/12/03 12:28:17;;;;;;;;;;;2.70;99.90;;;;;;5026240;28;19925;-81
2022/12/03 12:30:43;;;;;;;;;;;2.60;99.90;;;;;;5037795;28;20028;-80
2022/12/03 12:33:21;;;;;;;;;;;2.60;99.90;;;;;;5031907;28;19920;-81
2022/12/03 12:35:47;;;;;;;;;;;2.70;99.90;;;;;;5035488;28;19925;-80
2022/12/03 12:38:14;;;;;;;;;;;2.70;99.90;;;;;;5036319;28;20059;-80
2022/12/03 12:40:43;;;;;;;;;;;2.80;99.90;;;;;;5051623;28;19928;-80
2022/12/03 12:43:24;;;;;;;;;;;2.70;99.90;;;;;;5051764;28;19933;-80
2022/12/03 12:45:51;;;;;;;;;;;2.80;99.90;;;;;;5047745;28;19921;-80
2022/12/03 12:48:27;;;;;;;;;;;2.80;99.90;;;;;;5029817;28;19927;-80
2022/12/03 12:50:58;;;;;;;;;;;2.80;99.90;;;;;;5033860;28;19967;-81
2022/12/03 12:53:31;;;;;;;;;;;2.80;99.90;;;;;;5024703;28;19927;-80
2022/12/03 12:56:01;;;;;;;;;;;2.70;99.90;;;;;;5015335;28;20377;-80
2022/12/03 12:58:31;;;;;;;;;;;2.70;99.90;;;;;;5014631;28;19929;-80
2022/12/03 13:00:57;;;;;;;;;;;2.70;99.90;;;;;;5015339;28;20018;-80
2022/12/03 13:03:24;;;;;;;;;;;2.60;99.90;;;;;;5032812;28;20392;-80
2022/12/03 13:05:51;;;;;;;;;;;2.60;99.90;;;;;;5036712;28;19921;-80
2022/12/03 13:08:21;;;;;;;;;;;2.50;99.90;;;;;;5032945;28;19929;-81
2022/12/03 13:10:47;;;;;;;;;;;2.40;99.90;;;;;;5020517;28;19921;-81
2022/12/03 13:13:14;;;;;;;;;;;2.40;99.90;;;;;;5024587;28;19968;-81
2022/12/03 13:15:43;;;;;;;;;;;2.40;99.90;;;;;;5020203;28;20021;-80
2022/12/03 13:18:35;;;;;;;;;;;2.30;99.90;;;;;;5024248;28;20292;-80
2022/12/03 13:21:09;;;;;;;;;;;2.30;99.90;;;;;;5033488;28;19948;-81
2022/12/03 13:23:36;;;;;;;;;;;2.30;99.90;;;;;;5033891;28;19932;-80
2022/12/03 13:26:05;;;;;;;;;;;2.30;99.90;;;;;;5028707;28;19960;-80
2022/12/03 13:28:32;;;;;;;;;;;2.20;99.90;;;;;;4997963;28;19948;-81
2022/12/03 13:30:59;;;;;;;;;;;2.20;99.90;;;;;;5014535;28;19988;-80
2022/12/03 13:33:25;;;;;;;;;;;2.10;99.90;;;;;;5015637;28;19925;-80
2022/12/03 13:35:51;;;;;;;;;;;2.30;99.90;;;;;;5013840;28;19928;-81
2022/12/03 13:38:18;;;;;;;;;;;2.20;99.90;;;;;;5015469;28;19929;-81
2022/12/03 13:40:43;;;;;;;;;;;2.10;99.90;;;;;;5015457;28;19921;-80
2022/12/03 13:43:11;;;;;;;;;;;2.10;99.90;;;;;;5014841;28;20452;-80
2022/12/03 13:45:38;;;;;;;;;;;2.00;99.90;;;;;;5014141;28;19925;-80
2022/12/03 13:48:20;;;;;;;;;;;1.90;99.90;;;;;;5030506;28;19994;-80
2022/12/03 13:50:45;;;;;;;;;;;1.90;99.90;;;;;;5030698;28;19925;-81
2022/12/03 13:53:23;;;;;;;;;;;2.00;99.90;;;;;;5030395;28;19921;-81
2022/12/03 13:56:08;;;;;;;;;;;2.00;99.90;;;;;;5033794;28;19925;-81
2022/12/03 13:58:33;;;;;;;;;;;2.00;99.90;;;;;;5031506;28;19927;-81
2022/12/03 14:00:59;;;;;;;;;;;2.00;99.90;;;;;;5014800;28;19921;-80
2022/12/03 14:03:24;;;;;;;;;;;2.00;99.90;;;;;;5013733;28;19932;-80
2022/12/03 14:05:50;;;;;;;;;;;2.00;99.90;;;;;;5030431;28;20361;-81
2022/12/03 14:08:15;;;;;;;;;;;1.90;99.90;;;;;;5033510;28;20011;-81
2022/12/03 14:10:41;;;;;;;;;;;1.90;99.90;;;;;;5017161;28;19921;-81
2022/12/03 14:13:06;;;;;;;;;;;1.90;99.90;;;;;;5034491;28;19982;-80
2022/12/03 14:15:32;;;;;;;;;;;1.90;99.90;;;;;;5030075;28;20386;-81
2022/12/03 14:17:57;;;;;;;;;;;1.90;99.90;;;;;;5015879;28;19967;-81
2022/12/03 14:20:23;;;;;;;;;;;1.90;99.90;;;;;;4997628;28;19925;-83
2022/12/03 14:22:49;;;;;;;;;;;1.80;99.90;;;;;;5014916;28;19925;-80
2022/12/03 14:25:14;;;;;;;;;;;1.80;99.90;;;;;;4997428;28;19964;-82
2022/12/03 14:27:40;;;;;;;;;;;1.70;99.90;;;;;;5031820;28;19920;-81
2022/12/03 14:30:06;;;;;;;;;;;1.70;99.90;;;;;;5032441;28;19929;-83
2022/12/03 14:32:31;;;;;;;;;;;1.70;99.90;;;;;;5016766;28;20261;-82
2022/12/03 14:34:57;;;;;;;;;;;1.60;99.90;;;;;;5026904;28;19967;-82
2022/12/03 14:37:22;;;;;;;;;;;1.60;99.90;;;;;;5015612;28;19926;-79
2022/12/03 14:39:48;;;;;;;;;;;1.60;99.90;;;;;;5025195;28;20015;-81
2022/12/03 14:42:14;;;;;;;;;;;1.60;99.90;;;;;;5020387;28;19921;-84
2022/12/03 14:44:40;;;;;;;;;;;1.50;99.90;;;;;;5028568;28;19928;-81
2022/12/03 14:47:07;;;;;;;;;;;1.50;99.90;;;;;;5022664;28;19932;-79
2022/12/03 14:49:33;;;;;;;;;;;1.50;99.90;;;;;;5022029;28;20361;-81
2022/12/03 14:51:59;;;;;;;;;;;1.40;99.90;;;;;;5008901;28;19929;-81
2022/12/03 14:54:24;;;;;;;;;;;1.50;99.90;;;;;;5041103;28;20120;-80
2022/12/03 14:56:50;;;;;;;;;;;1.50;99.90;;;;;;5033482;28;20417;-83
2022/12/03 14:59:15;;;;;;;;;;;1.50;99.90;;;;;;5023083;28;19925;-80